Terminal Aerodrome Forecast
Issued by NWS

Home | Current Version | Previous Version | Graphics & Text | Print | Product List | Glossary On
Versions: 1 2 3 4 5 6 7 8 9 10 11 12
000
FTUS43 KMPX 301720
TAFRWF
TAF
KRWF 301720Z 3018/0118 16010KT P6SM SCT250
     FM011000 18007KT P6SM -RA SCT050 OVC080
     FM011400 21009KT P6SM SCT090=

USA.gov is the U.S. government's official web portal to all federal, state and local government web resources and services.